sensor_id;sensor_type;location;lat;lon;timestamp;pressure;altitude;pressure_sealevel;temperature;humidity
51496;BME280;37572;52.094;4.870;2023-04-25T00:00:23;101141.94;;;10.27;55.53
51496;BME280;37572;52.094;4.870;2023-04-25T00:02:50;101151.91;;;10.25;55.94
51496;BME280;37572;52.094;4.870;2023-04-25T00:05:15;101150.25;;;10.24;55.72
51496;BME280;37572;52.094;4.870;2023-04-25T00:07:41;101152.19;;;10.22;55.45
51496;BME280;37572;52.094;4.870;2023-04-25T00:10:08;101143.66;;;10.18;55.49
51496;BME280;37572;52.094;4.870;2023-04-25T00:12:33;101156.41;;;10.15;55.46
51496;BME280;37572;52.094;4.870;2023-04-25T00:14:59;101145.38;;;10.10;55.64
51496;BME280;37572;52.094;4.870;2023-04-25T00:17:25;101151.13;;;10.05;55.90
51496;BME280;37572;52.094;4.870;2023-04-25T00:19:50;101155.06;;;10.01;55.54
51496;BME280;37572;52.094;4.870;2023-04-25T00:22:16;101162.66;;;9.96;55.55
51496;BME280;37572;52.094;4.870;2023-04-25T00:24:42;101158.72;;;9.90;55.10
51496;BME280;37572;52.094;4.870;2023-04-25T00:27:07;101155.66;;;9.85;55.29
51496;BME280;37572;52.094;4.870;2023-04-25T00:29:33;101172.16;;;9.79;55.23
51496;BME280;37572;52.094;4.870;2023-04-25T00:31:59;101169.97;;;9.74;55.28
51496;BME280;37572;52.094;4.870;2023-04-25T00:34:24;101167.59;;;9.71;55.31
51496;BME280;37572;52.094;4.870;2023-04-25T00:36:49;101160.56;;;9.70;55.53
51496;BME280;37572;52.094;4.870;2023-04-25T00:39:15;101168.97;;;9.66;55.15
51496;BME280;37572;52.094;4.870;2023-04-25T00:41:40;101166.31;;;9.56;55.26
51496;BME280;37572;52.094;4.870;2023-04-25T00:44:08;101166.22;;;9.48;55.05
51496;BME280;37572;52.094;4.870;2023-04-25T00:46:36;101167.84;;;9.39;55.35
51496;BME280;37572;52.094;4.870;2023-04-25T00:49:01;101166.63;;;9.33;55.39
51496;BME280;37572;52.094;4.870;2023-04-25T00:51:27;101164.22;;;9.30;55.31
51496;BME280;37572;52.094;4.870;2023-04-25T00:53:53;101169.69;;;9.29;55.25
51496;BME280;37572;52.094;4.870;2023-04-25T00:56:18;101166.31;;;9.26;55.49
51496;BME280;37572;52.094;4.870;2023-04-25T00:58:44;101160.31;;;9.24;55.96
51496;BME280;37572;52.094;4.870;2023-04-25T01:01:11;101162.13;;;9.24;55.59
51496;BME280;37572;52.094;4.870;2023-04-25T01:03:38;101162.13;;;9.24;56.03
51496;BME280;37572;52.094;4.870;2023-04-25T01:06:10;101172.59;;;9.25;55.94
51496;BME280;37572;52.094;4.870;2023-04-25T01:08:37;101172.47;;;9.27;55.74
51496;BME280;37572;52.094;4.870;2023-04-25T01:11:03;101165.38;;;9.28;55.63
51496;BME280;37572;52.094;4.870;2023-04-25T01:13:28;101167.84;;;9.29;55.67
51496;BME280;37572;52.094;4.870;2023-04-25T01:15:54;101169.69;;;9.29;55.66
51496;BME280;37572;52.094;4.870;2023-04-25T01:18:19;101167.16;;;9.27;55.86
51496;BME280;37572;52.094;4.870;2023-04-25T01:20:46;101172.34;;;9.29;55.96
51496;BME280;37572;52.094;4.870;2023-04-25T01:23:12;101175.81;;;9.29;55.64
51496;BME280;37572;52.094;4.870;2023-04-25T01:25:38;101177.66;;;9.29;55.71
51496;BME280;37572;52.094;4.870;2023-04-25T01:28:04;101182.13;;;9.28;56.08
51496;BME280;37572;52.094;4.870;2023-04-25T01:30:30;101176.81;;;9.28;55.57
51496;BME280;37572;52.094;4.870;2023-04-25T01:32:56;101185.91;;;9.25;55.97
51496;BME280;37572;52.094;4.870;2023-04-25T01:35:22;101191.22;;;9.25;56.07
51496;BME280;37572;52.094;4.870;2023-04-25T01:37:49;101189.69;;;9.23;55.77
51496;BME280;37572;52.094;4.870;2023-04-25T01:40:15;101194.31;;;9.21;55.55
51496;BME280;37572;52.094;4.870;2023-04-25T01:42:42;101191.78;;;9.19;55.55
51496;BME280;37572;52.094;4.870;2023-04-25T01:45:09;101191.06;;;9.17;55.88
51496;BME280;37572;52.094;4.870;2023-04-25T01:47:36;101189.53;;;9.15;55.83
51496;BME280;37572;52.094;4.870;2023-04-25T01:50:05;101194.00;;;9.14;55.76
51496;BME280;37572;52.094;4.870;2023-04-25T01:52:31;101194.84;;;9.15;55.73
51496;BME280;37572;52.094;4.870;2023-04-25T01:54:57;101187.72;;;9.15;55.54
51496;BME280;37572;52.094;4.870;2023-04-25T01:57:24;101197.38;;;9.16;55.53
51496;BME280;37572;52.094;4.870;2023-04-25T01:59:49;101198.91;;;9.19;55.63
51496;BME280;37572;52.094;4.870;2023-04-25T02:02:15;101203.09;;;9.21;55.56
51496;BME280;37572;52.094;4.870;2023-04-25T02:04:40;101201.41;;;9.20;55.57
51496;BME280;37572;52.094;4.870;2023-04-25T02:07:06;101203.09;;;9.21;55.52
51496;BME280;37572;52.094;4.870;2023-04-25T02:09:31;101197.94;;;9.20;55.67
51496;BME280;37572;52.094;4.870;2023-04-25T02:11:57;101200.72;;;9.18;55.59
51496;BME280;37572;52.094;4.870;2023-04-25T02:14:22;101207.00;;;9.17;55.35
51496;BME280;37572;52.094;4.870;2023-04-25T02:16:48;101207.28;;;9.14;55.41
51496;BME280;37572;52.094;4.870;2023-04-25T02:19:13;101205.63;;;9.13;55.32
51496;BME280;37572;52.094;4.870;2023-04-25T02:21:38;101211.06;;;9.12;55.49
51496;BME280;37572;52.094;4.870;2023-04-25T02:24:04;101213.16;;;9.08;55.20
51496;BME280;37572;52.094;4.870;2023-04-25T02:26:29;101210.06;;;9.03;55.14
51496;BME280;37572;52.094;4.870;2023-04-25T02:28:56;101207.53;;;9.01;55.51
51496;BME280;37572;52.094;4.870;2023-04-25T02:31:22;101205.72;;;9.02;55.78
51496;BME280;37572;52.094;4.870;2023-04-25T02:33:47;101207.97;;;9.06;55.92
51496;BME280;37572;52.094;4.870;2023-04-25T02:36:12;101205.75;;;9.12;55.54
51496;BME280;37572;52.094;4.870;2023-04-25T02:38:38;101210.53;;;9.18;55.84
51496;BME280;37572;52.094;4.870;2023-04-25T02:41:03;101213.03;;;9.19;55.87
51496;BME280;37572;52.094;4.870;2023-04-25T02:43:29;101212.59;;;9.24;55.62
51496;BME280;37572;52.094;4.870;2023-04-25T02:45:54;101213.03;;;9.29;55.77
51496;BME280;37572;52.094;4.870;2023-04-25T02:48:20;101213.31;;;9.36;56.02
51496;BME280;37572;52.094;4.870;2023-04-25T02:50:45;101210.81;;;9.44;55.64
51496;BME280;37572;52.094;4.870;2023-04-25T02:53:10;101215.31;;;9.53;55.61
51496;BME280;37572;52.094;4.870;2023-04-25T02:55:36;101207.88;;;9.57;55.41
51496;BME280;37572;52.094;4.870;2023-04-25T02:58:01;101214.03;;;9.57;55.35
51496;BME280;37572;52.094;4.870;2023-04-25T03:00:27;101208.72;;;9.57;55.18
51496;BME280;37572;52.094;4.870;2023-04-25T03:02:52;101214.16;;;9.56;55.47
51496;BME280;37572;52.094;4.870;2023-04-25T03:05:17;101209.72;;;9.56;55.37
51496;BME280;37572;52.094;4.870;2023-04-25T03:07:43;101221.03;;;9.58;55.37
51496;BME280;37572;52.094;4.870;2023-04-25T03:10:10;101221.59;;;9.62;55.24
51496;BME280;37572;52.094;4.870;2023-04-25T03:12:36;101221.59;;;9.62;55.42
51496;BME280;37572;52.094;4.870;2023-04-25T03:15:01;101225.09;;;9.62;55.20
51496;BME280;37572;52.094;4.870;2023-04-25T03:17:26;101235.03;;;9.60;55.08
51496;BME280;37572;52.094;4.870;2023-04-25T03:19:52;101228.06;;;9.59;55.16
51496;BME280;37572;52.094;4.870;2023-04-25T03:22:17;101227.06;;;9.60;55.03
51496;BME280;37572;52.094;4.870;2023-04-25T03:24:42;101230.72;;;9.59;55.15
51496;BME280;37572;52.094;4.870;2023-04-25T03:27:08;101225.41;;;9.59;54.93
51496;BME280;37572;52.094;4.870;2023-04-25T03:29:33;101236.03;;;9.59;54.94
51496;BME280;37572;52.094;4.870;2023-04-25T03:31:58;101232.38;;;9.60;55.12
51496;BME280;37572;52.094;4.870;2023-04-25T03:34:23;101230.56;;;9.61;54.90
51496;BME280;37572;52.094;4.870;2023-04-25T03:36:49;101234.06;;;9.61;55.04
51496;BME280;37572;52.094;4.870;2023-04-25T03:39:14;101231.41;;;9.61;54.71
51496;BME280;37572;52.094;4.870;2023-04-25T03:41:40;101228.06;;;9.59;54.73
51496;BME280;37572;52.094;4.870;2023-04-25T03:44:05;101237.97;;;9.57;54.74
51496;BME280;37572;52.094;4.870;2023-04-25T03:46:30;101229.44;;;9.54;55.08
51496;BME280;37572;52.094;4.870;2023-04-25T03:48:56;101237.41;;;9.54;55.37
51496;BME280;37572;52.094;4.870;2023-04-25T03:51:21;101236.72;;;9.52;55.09
51496;BME280;37572;52.094;4.870;2023-04-25T03:53:47;101239.38;;;9.52;55.21
51496;BME280;37572;52.094;4.870;2023-04-25T03:56:12;101242.84;;;9.52;55.42
51496;BME280;37572;52.094;4.870;2023-04-25T03:58:38;101246.25;;;9.54;55.30
51496;BME280;37572;52.094;4.870;2023-04-25T04:01:03;101251.25;;;9.57;55.36
51496;BME280;37572;52.094;4.870;2023-04-25T04:03:33;101255.34;;;9.61;55.25
51496;BME280;37572;52.094;4.870;2023-04-25T04:05:59;101258.69;;;9.63;55.47
51496;BME280;37572;52.094;4.870;2023-04-25T04:08:24;101258.41;;;9.67;55.25
51496;BME280;37572;52.094;4.870;2023-04-25T04:10:49;101261.91;;;9.67;55.34
51496;BME280;37572;52.094;4.870;2023-04-25T04:13:15;101268.34;;;9.65;55.40
51496;BME280;37572;52.094;4.870;2023-04-25T04:15:40;101265.28;;;9.59;55.08
51496;BME280;37572;52.094;4.870;2023-04-25T04:18:05;101267.34;;;9.56;55.34
51496;BME280;37572;52.094;4.870;2023-04-25T04:20:31;101271.13;;;9.53;55.08
51496;BME280;37572;52.094;4.870;2023-04-25T04:22:56;101276.59;;;9.52;55.28
51496;BME280;37572;52.094;4.870;2023-04-25T04:25:22;101283.75;;;9.51;55.07
51496;BME280;37572;52.094;4.870;2023-04-25T04:27:47;101288.19;;;9.51;54.95
51496;BME280;37572;52.094;4.870;2023-04-25T04:30:12;101291.84;;;9.50;54.95
51496;BME280;37572;52.094;4.870;2023-04-25T04:32:38;101281.34;;;9.48;54.83
51496;BME280;37572;52.094;4.870;2023-04-25T04:35:04;101287.63;;;9.47;55.10
51496;BME280;37572;52.094;4.870;2023-04-25T04:37:30;101292.25;;;9.45;54.81
51496;BME280;37572;52.094;4.870;2023-04-25T04:39:55;101290.56;;;9.44;54.94
51496;BME280;37572;52.094;4.870;2023-04-25T04:42:21;101293.94;;;9.46;55.17
51496;BME280;37572;52.094;4.870;2023-04-25T04:44:46;101291.84;;;9.50;55.25
51496;BME280;37572;52.094;4.870;2023-04-25T04:47:11;101296.03;;;9.52;55.15
51496;BME280;37572;52.094;4.870;2023-04-25T04:49:37;101289.47;;;9.56;55.04
51496;BME280;37572;52.094;4.870;2023-04-25T04:52:03;101291.88;;;9.59;55.11
51496;BME280;37572;52.094;4.870;2023-04-25T04:54:28;101295.09;;;9.63;55.08
51496;BME280;37572;52.094;4.870;2023-04-25T04:56:53;101289.63;;;9.65;55.27
51496;BME280;37572;52.094;4.870;2023-04-25T04:59:19;101293.00;;;9.67;55.19
51496;BME280;37572;52.094;4.870;2023-04-25T05:01:44;101288.38;;;9.69;55.01
51496;BME280;37572;52.094;4.870;2023-04-25T05:04:10;101295.78;;;9.75;55.13
51496;BME280;37572;52.094;4.870;2023-04-25T05:06:36;101290.63;;;9.83;54.65
51496;BME280;37572;52.094;4.870;2023-04-25T05:09:01;101306.88;;;9.90;54.50
51496;BME280;37572;52.094;4.870;2023-04-25T05:11:26;101305.44;;;9.95;54.70
51496;BME280;37572;52.094;4.870;2023-04-25T05:13:53;101306.72;;;10.01;54.79
51496;BME280;37572;52.094;4.870;2023-04-25T05:16:18;101310.63;;;10.07;54.52
51496;BME280;37572;52.094;4.870;2023-04-25T05:18:46;101309.41;;;10.11;54.70
51496;BME280;37572;52.094;4.870;2023-04-25T05:21:12;101322.13;;;10.17;54.53
51496;BME280;37572;52.094;4.870;2023-04-25T05:23:37;101316.50;;;10.20;54.49
51496;BME280;37572;52.094;4.870;2023-04-25T05:26:02;101321.41;;;10.25;54.65
51496;BME280;37572;52.094;4.870;2023-04-25T05:28:28;101324.63;;;10.28;54.56
51496;BME280;37572;52.094;4.870;2023-04-25T05:30:53;101335.00;;;10.31;54.56
51496;BME280;37572;52.094;4.870;2023-04-25T05:33:18;101338.13;;;10.36;54.44
51496;BME280;37572;52.094;4.870;2023-04-25T05:35:44;101342.00;;;10.42;54.49
51496;BME280;37572;52.094;4.870;2023-04-25T05:38:10;101351.28;;;10.48;54.52
51496;BME280;37572;52.094;4.870;2023-04-25T05:40:35;101353.34;;;10.54;54.73
51496;BME280;37572;52.094;4.870;2023-04-25T05:43:01;101356.28;;;10.61;54.62
51496;BME280;37572;52.094;4.870;2023-04-25T05:45:26;101363.44;;;10.70;54.74
51496;BME280;37572;52.094;4.870;2023-04-25T05:47:51;101362.56;;;10.79;54.63
51496;BME280;37572;52.094;4.870;2023-04-25T05:50:17;101359.16;;;10.87;54.55
51496;BME280;37572;52.094;4.870;2023-04-25T05:52:42;101362.09;;;10.93;54.72
51496;BME280;37572;52.094;4.870;2023-04-25T05:55:08;101358.03;;;10.99;54.58
51496;BME280;37572;52.094;4.870;2023-04-25T05:57:33;101371.75;;;11.04;54.57
51496;BME280;37572;52.094;4.870;2023-04-25T05:59:58;101376.47;;;11.10;54.60
51496;BME280;37572;52.094;4.870;2023-04-25T06:02:24;101379.41;;;11.17;54.53
51496;BME280;37572;52.094;4.870;2023-04-25T06:04:50;101379.38;;;11.27;54.54
51496;BME280;37572;52.094;4.870;2023-04-25T06:07:15;101389.59;;;11.32;54.45
51496;BME280;37572;52.094;4.870;2023-04-25T06:09:41;101392.91;;;11.43;54.97
51496;BME280;37572;52.094;4.870;2023-04-25T06:12:06;101391.41;;;11.59;55.07
51496;BME280;37572;52.094;4.870;2023-04-25T06:14:33;101392.22;;;11.69;55.00
51496;BME280;37572;52.094;4.870;2023-04-25T06:16:58;101395.28;;;11.74;54.72
51496;BME280;37572;52.094;4.870;2023-04-25T06:19:23;101397.81;;;11.76;53.89
51496;BME280;37572;52.094;4.870;2023-04-25T06:21:49;101396.13;;;11.75;54.20
51496;BME280;37572;52.094;4.870;2023-04-25T06:24:14;101402.97;;;11.77;53.93
51496;BME280;37572;52.094;4.870;2023-04-25T06:26:39;101399.31;;;11.78;53.71
51496;BME280;37572;52.094;4.870;2023-04-25T06:29:05;101401.31;;;11.76;53.48
51496;BME280;37572;52.094;4.870;2023-04-25T06:31:30;101402.63;;;11.90;53.94
51496;BME280;37572;52.094;4.870;2023-04-25T06:33:57;101400.38;;;12.13;53.65
51496;BME280;37572;52.094;4.870;2023-04-25T06:36:23;101411.53;;;12.27;53.33
51496;BME280;37572;52.094;4.870;2023-04-25T06:38:53;101412.44;;;12.35;53.33
51496;BME280;37572;52.094;4.870;2023-04-25T06:41:19;101411.81;;;12.42;52.87
51496;BME280;37572;52.094;4.870;2023-04-25T06:43:45;101411.69;;;12.43;52.79
51496;BME280;37572;52.094;4.870;2023-04-25T06:46:10;101413.66;;;12.41;52.85
51496;BME280;37572;52.094;4.870;2023-04-25T06:48:36;101420.16;;;12.38;52.41
51496;BME280;37572;52.094;4.870;2023-04-25T06:51:01;101427.78;;;12.33;52.31
51496;BME280;37572;52.094;4.870;2023-04-25T06:53:26;101428.22;;;12.29;52.33
51496;BME280;37572;52.094;4.870;2023-04-25T06:55:52;101431.38;;;12.24;52.26
51496;BME280;37572;52.094;4.870;2023-04-25T06:58:17;101429.53;;;12.25;52.49
51496;BME280;37572;52.094;4.870;2023-04-25T07:00:43;101436.25;;;12.29;52.67
51496;BME280;37572;52.094;4.870;2023-04-25T07:03:08;101438.31;;;12.35;52.57
51496;BME280;37572;52.094;4.870;2023-04-25T07:05:33;101440.84;;;12.36;52.51
51496;BME280;37572;52.094;4.870;2023-04-25T07:07:59;101435.88;;;12.42;52.78
51496;BME280;37572;52.094;4.870;2023-04-25T07:10:25;101441.44;;;12.48;52.75
51496;BME280;37572;52.094;4.870;2023-04-25T07:12:50;101438.16;;;12.54;52.81
51496;BME280;37572;52.094;4.870;2023-04-25T07:15:16;101433.03;;;12.61;52.52
51496;BME280;37572;52.094;4.870;2023-04-25T07:17:41;101434.34;;;13.01;53.15
51496;BME280;37572;52.094;4.870;2023-04-25T07:20:07;101442.78;;;13.83;52.84
51496;BME280;37572;52.094;4.870;2023-04-25T07:22:35;101449.41;;;14.22;51.19
51496;BME280;37572;52.094;4.870;2023-04-25T07:25:00;101458.47;;;14.21;50.22
51496;BME280;37572;52.094;4.870;2023-04-25T07:27:25;101457.44;;;14.05;49.83
51496;BME280;37572;52.094;4.870;2023-04-25T07:29:51;101469.91;;;13.88;49.77
51496;BME280;37572;52.094;4.870;2023-04-25T07:32:16;101462.31;;;13.67;49.52
51496;BME280;37572;52.094;4.870;2023-04-25T07:34:41;101468.06;;;13.46;49.93
51496;BME280;37572;52.094;4.870;2023-04-25T07:37:07;101461.91;;;13.28;49.66
51496;BME280;37572;52.094;4.870;2023-04-25T07:39:32;101473.56;;;13.45;50.04
51496;BME280;37572;52.094;4.870;2023-04-25T07:41:57;101476.13;;;13.89;50.59
51496;BME280;37572;52.094;4.870;2023-04-25T07:44:25;101478.59;;;14.41;49.66
51496;BME280;37572;52.094;4.870;2023-04-25T07:46:51;101474.28;;;14.90;48.84
51496;BME280;37572;52.094;4.870;2023-04-25T07:49:16;101472.88;;;15.27;48.05
51496;BME280;37572;52.094;4.870;2023-04-25T07:51:41;101478.88;;;15.45;47.35
51496;BME280;37572;52.094;4.870;2023-04-25T07:54:13;101478.81;;;15.70;47.28
51496;BME280;37572;52.094;4.870;2023-04-25T07:56:39;101477.88;;;16.02;47.13
51496;BME280;37572;52.094;4.870;2023-04-25T07:59:04;101482.38;;;16.33;46.51
51496;BME280;37572;52.094;4.870;2023-04-25T08:01:30;101484.38;;;16.62;46.21
51496;BME280;37572;52.094;4.870;2023-04-25T08:03:56;101474.44;;;16.86;45.05
51496;BME280;37572;52.094;4.870;2023-04-25T08:06:21;101468.94;;;17.02;44.50
51496;BME280;37572;52.094;4.870;2023-04-25T08:08:46;101484.44;;;17.15;43.95
51496;BME280;37572;52.094;4.870;2023-04-25T08:11:12;101487.88;;;17.24;43.18
51496;BME280;37572;52.094;4.870;2023-04-25T08:13:37;101489.00;;;17.30;42.66
51496;BME280;37572;52.094;4.870;2023-04-25T08:16:02;101491.31;;;17.33;42.88
51496;BME280;37572;52.094;4.870;2023-04-25T08:18:28;101494.94;;;17.40;42.20
51496;BME280;37572;52.094;4.870;2023-04-25T08:20:53;101496.44;;;17.43;42.42
51496;BME280;37572;52.094;4.870;2023-04-25T08:23:18;101498.75;;;17.31;42.40
51496;BME280;37572;52.094;4.870;2023-04-25T08:25:43;101502.16;;;17.10;42.30
51496;BME280;37572;52.094;4.870;2023-04-25T08:28:09;101505.03;;;16.85;42.04
51496;BME280;37572;52.094;4.870;2023-04-25T08:30:34;101513.16;;;16.54;42.25
51496;BME280;37572;52.094;4.870;2023-04-25T08:33:00;101516.50;;;16.33;42.66
51496;BME280;37572;52.094;4.870;2023-04-25T08:35:25;101521.16;;;16.39;43.35
51496;BME280;37572;52.094;4.870;2023-04-25T08:37:50;101520.63;;;16.67;42.82
51496;BME280;37572;52.094;4.870;2023-04-25T08:40:16;101520.69;;;17.05;42.63
51496;BME280;37572;52.094;4.870;2023-04-25T08:42:42;101529.19;;;17.31;41.91
51496;BME280;37572;52.094;4.870;2023-04-25T08:45:08;101535.22;;;17.33;41.26
51496;BME280;37572;52.094;4.870;2023-04-25T08:47:34;101535.28;;;17.10;40.56
51496;BME280;37572;52.094;4.870;2023-04-25T08:50:03;101539.22;;;16.76;40.86
51496;BME280;37572;52.094;4.870;2023-04-25T08:52:35;101549.69;;;16.40;40.91
51496;BME280;37572;52.094;4.870;2023-04-25T08:55:01;101553.09;;;16.02;41.62
51496;BME280;37572;52.094;4.870;2023-04-25T08:57:27;101553.31;;;15.84;42.69
51496;BME280;37572;52.094;4.870;2023-04-25T08:59:52;101553.59;;;15.98;43.68
51496;BME280;37572;52.094;4.870;2023-04-25T09:02:19;101565.06;;;16.23;43.24
51496;BME280;37572;52.094;4.870;2023-04-25T09:04:46;101567.19;;;16.36;42.96
51496;BME280;37572;52.094;4.870;2023-04-25T09:07:11;101574.78;;;16.32;42.31
51496;BME280;37572;52.094;4.870;2023-04-25T09:09:37;101576.69;;;16.15;41.56
51496;BME280;37572;52.094;4.870;2023-04-25T09:12:02;101589.38;;;15.90;41.58
51496;BME280;37572;52.094;4.870;2023-04-25T09:14:28;101593.44;;;15.61;41.89
51496;BME280;37572;52.094;4.870;2023-04-25T09:19:32;101609.34;;;14.89;43.44
51496;BME280;37572;52.094;4.870;2023-04-25T09:22:03;101613.63;;;14.57;43.88
51496;BME280;37572;52.094;4.870;2023-04-25T09:24:37;101625.22;;;14.23;44.06
51496;BME280;37572;52.094;4.870;2023-04-25T09:27:07;101618.84;;;13.90;44.64
51496;BME280;37572;52.094;4.870;2023-04-25T09:29:34;101636.16;;;13.51;45.48
51496;BME280;37572;52.094;4.870;2023-04-25T09:32:20;101649.44;;;13.07;46.09
51496;BME280;37572;52.094;4.870;2023-04-25T09:34:47;101657.28;;;12.72;46.77
51496;BME280;37572;52.094;4.870;2023-04-25T09:37:19;101660.94;;;12.44;47.80
51496;BME280;37572;52.094;4.870;2023-04-25T09:39:46;101654.44;;;12.18;48.43
51496;BME280;37572;52.094;4.870;2023-04-25T09:42:13;101653.38;;;12.01;48.77
51496;BME280;37572;52.094;4.870;2023-04-25T09:44:45;101648.06;;;11.92;49.28
51496;BME280;37572;52.094;4.870;2023-04-25T09:47:12;101642.41;;;11.85;49.57
51496;BME280;37572;52.094;4.870;2023-04-25T09:49:42;101646.50;;;11.79;49.81
51496;BME280;37572;52.094;4.870;2023-04-25T09:52:08;101652.41;;;11.83;50.23
51496;BME280;37572;52.094;4.870;2023-04-25T09:54:33;101652.69;;;11.99;50.74
51496;BME280;37572;52.094;4.870;2023-04-25T09:57:10;101658.34;;;12.24;51.22
51496;BME280;37572;52.094;4.870;2023-04-25T09:59:38;101659.50;;;12.49;51.45
51496;BME280;37572;52.094;4.870;2023-04-25T10:02:07;101661.47;;;12.75;51.35
51496;BME280;37572;52.094;4.870;2023-04-25T10:04:34;101656.53;;;12.98;51.45
51496;BME280;37572;52.094;4.870;2023-04-25T10:07:01;101662.59;;;13.18;51.47
51496;BME280;37572;52.094;4.870;2023-04-25T10:09:28;101660.19;;;13.43;51.67
51496;BME280;37572;52.094;4.870;2023-04-25T10:11:59;101654.00;;;13.68;51.68
51496;BME280;37572;52.094;4.870;2023-04-25T10:14:25;101656.91;;;14.01;51.50
51496;BME280;37572;52.094;4.870;2023-04-25T10:16:52;101654.41;;;14.34;51.17
51496;BME280;37572;52.094;4.870;2023-04-25T10:19:19;101654.22;;;14.70;51.25
51496;BME280;37572;52.094;4.870;2023-04-25T10:21:55;101650.47;;;15.06;50.51
51496;BME280;37572;52.094;4.870;2023-04-25T10:24:23;101653.00;;;15.32;50.06
51496;BME280;37572;52.094;4.870;2023-04-25T10:26:49;101654.69;;;15.58;49.70
51496;BME280;37572;52.094;4.870;2023-04-25T10:29:23;101646.81;;;15.81;49.03
51496;BME280;37572;52.094;4.870;2023-04-25T10:31:49;101652.81;;;15.99;48.63
51496;BME280;37572;52.094;4.870;2023-04-25T10:34:15;101650.91;;;16.16;48.00
51496;BME280;37572;52.094;4.870;2023-04-25T10:36:41;101661.63;;;16.33;47.89
51496;BME280;37572;52.094;4.870;2023-04-25T10:39:07;101656.53;;;16.46;47.49
51496;BME280;37572;52.094;4.870;2023-04-25T10:41:47;101654.75;;;16.61;47.11
51496;BME280;37572;52.094;4.870;2023-04-25T10:44:15;101655.50;;;16.78;47.32
51496;BME280;37572;52.094;4.870;2023-04-25T10:46:41;101660.53;;;16.90;46.33
51496;BME280;37572;52.094;4.870;2023-04-25T10:49:07;101676.00;;;16.88;45.36
51496;BME280;37572;52.094;4.870;2023-04-25T10:51:34;101673.75;;;16.60;44.88
51496;BME280;37572;52.094;4.870;2023-04-25T10:54:03;101679.81;;;16.14;44.40
51496;BME280;37572;52.094;4.870;2023-04-25T10:56:35;101694.94;;;15.58;44.56
51496;BME280;37572;52.094;4.870;2023-04-25T10:59:14;101716.84;;;14.95;45.15
51496;BME280;37572;52.094;4.870;2023-04-25T11:01:46;101723.59;;;14.39;45.98
51496;BME280;37572;52.094;4.870;2023-04-25T11:09:23;101707.97;;;13.10;48.05
51496;BME280;37572;52.094;4.870;2023-04-25T11:11:56;101690.09;;;12.92;48.44
51496;BME280;37572;52.094;4.870;2023-04-25T11:14:22;101697.72;;;12.87;48.49
51496;BME280;37572;52.094;4.870;2023-04-25T11:16:52;101690.63;;;12.96;48.74
51496;BME280;37572;52.094;4.870;2023-04-25T11:19:19;101693.84;;;13.18;48.63
51496;BME280;37572;52.094;4.870;2023-04-25T11:21:44;101687.53;;;13.37;48.71
51496;BME280;37572;52.094;4.870;2023-04-25T11:24:10;101688.06;;;13.58;49.09
51496;BME280;37572;52.094;4.870;2023-04-25T11:26:35;101688.09;;;13.84;49.34
51496;BME280;37572;52.094;4.870;2023-04-25T11:29:02;101683.47;;;14.21;49.35
51496;BME280;37572;52.094;4.870;2023-04-25T11:31:28;101680.16;;;14.61;49.49
51496;BME280;37572;52.094;4.870;2023-04-25T11:33:56;101675.09;;;15.01;49.59
51496;BME280;37572;52.094;4.870;2023-04-25T11:36:25;101672.97;;;15.46;49.78
51496;BME280;37572;52.094;4.870;2023-04-25T11:38:52;101684.06;;;15.84;49.89
51496;BME280;37572;52.094;4.870;2023-04-25T11:41:21;101680.00;;;16.04;48.91
51496;BME280;37572;52.094;4.870;2023-04-25T11:43:47;101690.75;;;16.04;47.25
51496;BME280;37572;52.094;4.870;2023-04-25T11:46:13;101684.72;;;15.94;46.87
51496;BME280;37572;52.094;4.870;2023-04-25T11:48:42;101673.50;;;15.82;46.05
51496;BME280;37572;52.094;4.870;2023-04-25T11:51:07;101680.34;;;15.68;45.81
51496;BME280;37572;52.094;4.870;2023-04-25T11:53:33;101689.09;;;15.62;46.40
51496;BME280;37572;52.094;4.870;2023-04-25T11:55:58;101695.28;;;15.71;46.58
51496;BME280;37572;52.094;4.870;2023-04-25T11:58:25;101690.25;;;15.93;46.64
51496;BME280;37572;52.094;4.870;2023-04-25T12:00:50;101695.59;;;16.17;46.76
51496;BME280;37572;52.094;4.870;2023-04-25T12:03:17;101706.97;;;16.36;45.95
51496;BME280;37572;52.094;4.870;2023-04-25T12:05:44;101707.63;;;16.38;45.41
51496;BME280;37572;52.094;4.870;2023-04-25T12:08:14;101700.22;;;16.40;44.61
51496;BME280;37572;52.094;4.870;2023-04-25T12:10:41;101705.19;;;16.59;44.80
51496;BME280;37572;52.094;4.870;2023-04-25T12:13:25;101707.41;;;16.95;44.89
51496;BME280;37572;52.094;4.870;2023-04-25T12:15:54;101705.50;;;17.35;44.94
51496;BME280;37572;52.094;4.870;2023-04-25T12:18:24;101707.94;;;17.83;44.94
51496;BME280;37572;52.094;4.870;2023-04-25T12:20:52;101708.38;;;18.10;42.51
51496;BME280;37572;52.094;4.870;2023-04-25T12:23:25;101709.97;;;18.04;41.28
51496;BME280;37572;52.094;4.870;2023-04-25T12:25:51;101710.16;;;17.80;40.90
51496;BME280;37572;52.094;4.870;2023-04-25T12:28:21;101717.63;;;17.54;41.06
51496;BME280;37572;52.094;4.870;2023-04-25T12:33:28;101726.03;;;17.74;41.77
51496;BME280;37572;52.094;4.870;2023-04-25T12:35:55;101717.03;;;18.05;41.56
51496;BME280;37572;52.094;4.870;2023-04-25T12:38:27;101721.69;;;18.41;41.01
51496;BME280;37572;52.094;4.870;2023-04-25T12:40:54;101728.56;;;18.74;40.52
51496;BME280;37572;52.094;4.870;2023-04-25T12:43:19;101724.75;;;18.83;39.61
51496;BME280;37572;52.094;4.870;2023-04-25T12:45:47;101730.41;;;19.03;40.05
51496;BME280;37572;52.094;4.870;2023-04-25T12:48:13;101741.16;;;19.18;39.58
51496;BME280;37572;52.094;4.870;2023-04-25T12:50:38;101732.69;;;19.21;39.13
51496;BME280;37572;52.094;4.870;2023-04-25T12:53:03;101736.31;;;19.13;38.73
51496;BME280;37572;52.094;4.870;2023-04-25T12:55:29;101742.91;;;19.26;38.88
51496;BME280;37572;52.094;4.870;2023-04-25T12:57:54;101740.59;;;19.66;39.28